Main page
METAR-TAF:

METAR-TAF

Airports :

Curaçao, Netherlands Antilles

Curaçao International Airport

latitude: 12-12N, longitude: 068-58W, elevation: 9 m

Current weather observation

The report was made 1 hour and 18 minutes ago, at 05:00 UTC
Wind 12 kt from the East
Temperature 27°C
Humidity 84%
Pressure 1014 hPa
Visibility 10 km or more
Scattered clouds at a height of 1700 ft, Towering cumulus.
light rain showers

METAR: TNCC 010500Z 10012KT 9999 -SHRA SCT017TCU 27/24 Q1014 NOSIG

Time: 02:18 (06:18 UTC)

Forecast

The report was made 2 hours and 18 minutes ago, at 04:00 UTC
Forecast valid from 01 at 06 UTC to 02 at 06 UTC
Wind 14 kt from the East
Visibility 10 km or more
Few clouds at a height of 1800 ft
Probability 30% :
Temporary
from 01 at 06 UTC to 01 at 14 UTC
Visibility: 7000 m
Broken clouds at a height of 1400 ft
light rain showers

TAF: TNCC 010400Z 0106/0206 09014KT 9999 FEW018 PROB30 TEMPO 0106/0114 7000 -SHRA BKN014

Weather observations and forecasts of more than 4000 airports (METAR and TAF reports).

The available stations are represented by yellow and red dots on the map.

Hover mouse over dot to see the name of the station.

Then click to see weather observations and forecasts.

To change the map : click on the green buttons with a black cross to zoom in, on the green button with a dash to zoom out, or on the green arrows for adjacent maps.


METAR-TAF: